Time;durP1;ratioP1;P1;durP2;ratioP2;P2;SDS_P1;SDS_P2;PMS_P1;PMS_P2;Temp;Humidity;BMP_temperature;BMP_pressure;BME280_temperature;BME280_humidity;BME280_pressure;Samples;Min_cycle;Max_cycle;Signal;HPM_P1;HPM_P2
2021/08/06 00:01:19;;;;;;;17.30;13.88;;;;;;;14.88;100.00;99971.22;3583783;40;20052;-44
2021/08/06 00:03:46;;;;;;;14.85;13.30;;;;;;;14.97;100.00;99969.47;3583826;40;20048;-44
2021/08/06 00:06:17;;;;;;;14.32;12.90;;;;;;;14.96;100.00;99966.88;3583708;40;20052;-45
2021/08/06 00:08:44;;;;;;;17.50;13.80;;;;;;;14.86;100.00;99966.06;3583807;40;20080;-45
2021/08/06 00:11:10;;;;;;;12.82;11.63;;;;;;;14.97;100.00;99961.72;3574446;40;20052;-44
2021/08/06 00:13:37;;;;;;;15.20;13.80;;;;;;;14.84;100.00;99961.81;3585609;40;20092;-43
2021/08/06 00:16:05;;;;;;;15.57;14.07;;;;;;;14.81;100.00;99961.81;3585198;40;20433;-43
2021/08/06 00:18:32;;;;;;;15.82;14.07;;;;;;;14.93;100.00;99959.16;3585301;40;20346;-45
2021/08/06 00:20:59;;;;;;;13.48;12.27;;;;;;;15.20;100.00;99958.19;3585200;40;20073;-43
2021/08/06 00:23:25;;;;;;;13.68;12.48;;;;;;;15.19;100.00;99961.63;3585658;40;20089;-43
2021/08/06 00:25:53;;;;;;;13.68;12.38;;;;;;;15.08;100.00;99956.53;3585460;40;20068;-44
2021/08/06 00:28:19;;;;;;;13.48;12.23;;;;;;;14.93;100.00;99956.59;3585302;40;20351;-43
2021/08/06 00:30:47;;;;;;;13.48;12.18;;;;;;;15.03;100.00;99963.44;3575932;40;20409;-43
2021/08/06 00:33:14;;;;;;;13.25;11.95;;;;;;;15.44;100.00;99954.63;3585151;40;20524;-43
2021/08/06 00:35:40;;;;;;;11.52;10.52;;;;;;;15.39;100.00;99956.34;3585108;40;20052;-44
2021/08/06 00:38:08;;;;;;;13.52;12.25;;;;;;;15.01;100.00;99963.44;3585206;40;20080;-45
2021/08/06 00:40:34;;;;;;;14.75;13.15;;;;;;;14.91;100.00;99959.19;3585374;40;20096;-45
2021/08/06 00:43:02;;;;;;;13.90;12.57;;;;;;;14.89;100.00;99952.31;3585124;40;20088;-43
2021/08/06 00:45:29;;;;;;;14.20;12.90;;;;;;;14.85;100.00;99956.63;3585433;40;20088;-46
2021/08/06 00:47:56;;;;;;;14.02;12.82;;;;;;;14.81;100.00;99954.94;3585000;40;20037;-43
2021/08/06 00:50:23;;;;;;;15.73;14.13;;;;;;;14.77;100.00;99951.50;3585048;40;20073;-45
2021/08/06 00:52:50;;;;;;;17.50;15.75;;;;;;;14.81;100.00;99952.34;3585198;40;20092;-43
2021/08/06 00:55:17;;;;;;;18.60;16.70;;;;;;;14.69;100.00;99953.22;3584967;40;20088;-44
2021/08/06 00:57:44;;;;;;;17.75;16.05;;;;;;;15.09;100.00;99949.66;3584780;40;20145;-46
2021/08/06 01:00:13;;;;;;;16.63;14.15;;;;;;;15.40;100.00;99951.22;3585323;40;20056;-43
2021/08/06 01:03:17;;;;;;;17.33;15.63;;;;;;;14.89;100.00;99947.16;3585068;40;20049;-46
2021/08/06 01:05:51;;;;;;;17.75;16.05;;;;;;;14.85;100.00;99943.75;3584678;40;20142;-43
2021/08/06 01:08:23;;;;;;;17.08;15.48;;;;;;;14.86;100.00;99950.59;3584893;40;20057;-43
2021/08/06 01:10:57;;;;;;;17.88;16.17;;;;;;;14.88;100.00;99941.16;3585091;40;20321;-44
2021/08/06 01:13:36;;;;;;;17.55;15.85;;;;;;;14.86;100.00;99947.16;3585320;40;20080;-46
2021/08/06 01:16:05;;;;;;;17.50;15.82;;;;;;;14.86;100.00;99937.72;3585037;40;20133;-44
2021/08/06 01:18:34;;;;;;;18.23;16.42;;;;;;;14.86;100.00;99942.03;3584461;40;20059;-45
2021/08/06 01:21:09;;;;;;;16.77;15.20;;;;;;;14.83;100.00;99934.28;3584894;40;20084;-45
2021/08/06 01:23:39;;;;;;;17.35;15.82;;;;;;;14.74;100.00;99938.63;3584776;40;20148;-44
2021/08/06 01:26:16;;;;;;;19.52;17.30;;;;;;;14.74;100.00;99938.63;3584185;40;20081;-43
2021/08/06 01:28:46;;;;;;;19.15;17.15;;;;;;;14.75;100.00;99932.63;3584637;40;20323;-43
2021/08/06 01:31:14;;;;;;;18.23;16.40;;;;;;;14.97;100.00;99933.38;3585069;40;20088;-49
2021/08/06 01:33:43;;;;;;;24.27;21.77;;;;;;;14.89;100.00;99936.88;3584571;40;20109;-44
2021/08/06 01:36:10;;;;;;;23.85;20.65;;;;;;;14.82;100.00;99936.00;3575279;40;20080;-43
2021/08/06 01:38:37;;;;;;;30.05;26.80;;;;;;;14.88;100.00;99935.13;3584350;40;20088;-46
2021/08/06 01:41:44;;;;;;;38.42;32.88;;;;;;;15.15;100.00;99929.84;3584319;40;20055;-45
2021/08/06 01:44:20;;;;;;;60.67;45.90;;;;;;;15.16;100.00;99934.16;3584619;40;20084;-46
2021/08/06 01:46:57;;;;;;;55.08;44.15;;;;;;;15.31;100.00;99927.19;3584734;40;20051;-44
2021/08/06 01:49:34;;;;;;;43.80;36.70;;;;;;;15.62;100.00;99926.13;3584720;40;20060;-44
2021/08/06 01:52:05;;;;;;;43.75;36.40;;;;;;;15.34;100.00;99922.00;3575410;40;20056;-43
2021/08/06 01:54:33;;;;;;;34.50;30.05;;;;;;;14.98;100.00;99924.78;3584699;40;20088;-43
2021/08/06 01:57:02;;;;;;;37.63;31.42;;;;;;;14.94;100.00;99922.22;3584606;40;20052;-47
2021/08/06 01:59:30;;;;;;;35.97;30.45;;;;;;;14.99;100.00;99923.06;3584673;40;20088;-43
2021/08/06 02:01:57;;;;;;;39.45;33.05;;;;;;;14.96;100.00;99920.50;3584811;40;20115;-43
2021/08/06 02:04:26;;;;;;;31.27;27.40;;;;;;;15.03;100.00;99924.75;3584798;40;20052;-44
2021/08/06 02:06:54;;;;;;;28.83;25.67;;;;;;;15.37;100.00;99927.16;3584925;40;20327;-44
2021/08/06 02:09:22;;;;;;;28.88;25.95;;;;;;;15.14;100.00;99925.56;3584547;40;20049;-45
2021/08/06 02:11:51;;;;;;;24.85;22.30;;;;;;;15.07;100.00;99915.28;3584752;40;20084;-43
2021/08/06 02:14:19;;;;;;;26.38;22.92;;;;;;;15.06;100.00;99924.72;3584842;40;20148;-43
2021/08/06 02:16:49;;;;;;;28.85;23.60;;;;;;;15.11;100.00;99920.41;3584686;40;20055;-43
2021/08/06 02:19:20;;;;;;;24.77;22.27;;;;;;;14.97;100.00;99915.31;3584653;40;20097;-44
2021/08/06 02:21:51;;;;;;;21.50;19.40;;;;;;;15.13;100.00;99910.94;3584379;40;20056;-44
2021/08/06 02:24:20;;;;;;;21.38;19.17;;;;;;;15.02;100.00;99910.13;3584897;40;20782;-44
2021/08/06 02:26:48;;;;;;;20.17;18.05;;;;;;;15.18;100.00;99905.78;3584553;40;20059;-43
2021/08/06 02:29:18;;;;;;;19.95;17.85;;;;;;;15.13;100.00;99899.78;3584268;40;20088;-43
2021/08/06 02:31:46;;;;;;;19.15;17.33;;;;;;;15.23;100.00;99902.28;3584622;40;20359;-44
2021/08/06 02:34:15;;;;;;;19.15;17.25;;;;;;;15.04;100.00;99903.25;3583996;40;20804;-43
2021/08/06 02:36:45;;;;;;;19.88;17.83;;;;;;;15.24;100.00;99900.56;3584294;40;20081;-46
2021/08/06 02:39:18;;;;;;;19.67;17.33;;;;;;;15.76;100.00;99893.38;3584248;40;20072;-43
2021/08/06 02:41:46;;;;;;;18.20;16.45;;;;;;;15.67;100.00;99890.00;3584610;40;20067;-45
2021/08/06 02:44:22;;;;;;;21.98;16.95;;;;;;;15.70;100.00;99890.81;3584270;40;20088;-43
2021/08/06 02:46:53;;;;;;;19.15;17.27;;;;;;;15.24;100.00;99887.66;3584747;40;20778;-44
2021/08/06 02:49:20;;;;;;;19.52;17.52;;;;;;;15.03;100.00;99893.81;3584490;40;20388;-43
2021/08/06 02:51:47;;;;;;;18.15;16.38;;;;;;;15.17;100.00;99894.59;3584305;40;20093;-43
2021/08/06 02:54:14;;;;;;;18.75;17.05;;;;;;;15.59;100.00;99892.59;3584688;40;20092;-44
2021/08/06 02:56:41;;;;;;;17.27;15.68;;;;;;;15.69;100.00;99894.25;3584738;40;20300;-47
2021/08/06 02:59:08;;;;;;;16.65;15.07;;;;;;;15.57;100.00;99889.16;3583929;40;20084;-45
2021/08/06 03:01:35;;;;;;;16.05;14.55;;;;;;;15.26;100.00;99894.53;3584460;40;20052;-44
2021/08/06 03:04:02;;;;;;;14.13;12.88;;;;;;;15.19;100.00;99892.00;3584350;40;20109;-46
2021/08/06 03:06:29;;;;;;;14.73;13.32;;;;;;;15.00;100.00;99893.81;3584299;40;20060;-43
2021/08/06 03:08:56;;;;;;;13.93;12.73;;;;;;;14.96;100.00;99895.56;3584154;40;20136;-43
2021/08/06 03:11:23;;;;;;;12.63;11.43;;;;;;;14.95;100.00;99893.84;3584771;40;20052;-43
2021/08/06 03:13:50;;;;;;;12.15;10.85;;;;;;;15.00;100.00;99894.69;3584314;40;20394;-43
2021/08/06 03:16:17;;;;;;;14.00;12.60;;;;;;;14.75;100.00;99893.09;3584136;40;20313;-47
2021/08/06 03:18:44;;;;;;;13.27;11.88;;;;;;;14.75;100.00;99886.22;3584106;40;20092;-43
2021/08/06 03:21:14;;;;;;;14.90;13.50;;;;;;;14.75;100.00;99893.09;3583917;40;20060;-47
2021/08/06 03:23:41;;;;;;;14.50;13.05;;;;;;;14.99;100.00;99887.81;3584131;40;20088;-43
2021/08/06 03:26:08;;;;;;;14.52;13.15;;;;;;;15.12;100.00;99895.50;3584189;40;20040;-45
2021/08/06 03:28:35;;;;;;;16.80;13.85;;;;;;;14.91;100.00;99892.16;3583597;40;20339;-43
2021/08/06 03:31:03;;;;;;;16.23;14.55;;;;;;;14.52;100.00;99895.75;3584209;40;20056;-46
2021/08/06 03:33:30;;;;;;;17.52;15.25;;;;;;;14.48;100.00;99896.63;3584014;40;20088;-44
2021/08/06 03:35:57;;;;;;;16.38;14.70;;;;;;;14.45;100.00;99894.88;3583809;40;20434;-43
2021/08/06 03:38:24;;;;;;;15.98;14.40;;;;;;;14.75;100.00;99890.53;3584168;40;20053;-43
2021/08/06 03:40:53;;;;;;;15.65;13.95;;;;;;;15.17;100.00;99896.31;3583830;40;20078;-43
2021/08/06 03:43:20;;;;;;;14.75;13.32;;;;;;;15.13;100.00;99894.63;3584076;40;20455;-43
2021/08/06 03:45:47;;;;;;;15.75;14.15;;;;;;;14.80;100.00;99898.22;3583588;40;20092;-45
2021/08/06 03:48:17;;;;;;;15.85;14.40;;;;;;;14.60;100.00;99887.97;3583930;40;20064;-43
2021/08/06 03:50:45;;;;;;;17.55;15.75;;;;;;;14.47;100.00;99888.00;3584097;40;20650;-46
2021/08/06 03:53:12;;;;;;;16.63;14.93;;;;;;;14.52;100.00;99893.19;3584216;40;20343;-43
2021/08/06 03:55:39;;;;;;;15.73;14.32;;;;;;;14.46;100.00;99896.56;3583686;40;20088;-45
2021/08/06 03:58:06;;;;;;;16.90;15.20;;;;;;;14.33;100.00;99894.94;3583739;40;20068;-43
2021/08/06 04:00:38;;;;;;;17.40;15.75;;;;;;;14.41;100.00;99885.44;3583613;40;20052;-43
2021/08/06 04:03:06;;;;;;;16.58;15.02;;;;;;;14.41;100.00;99887.16;3583861;40;20391;-47
2021/08/06 04:05:34;;;;;;;16.95;15.25;;;;;;;14.34;100.00;99888.91;3584055;40;20057;-43
2021/08/06 04:08:08;;;;;;;16.90;15.25;;;;;;;14.37;100.00;99882.88;3583530;40;20096;-47
2021/08/06 04:10:36;;;;;;;15.68;14.20;;;;;;;14.70;100.00;99882.81;3584014;40;20091;-43
2021/08/06 04:13:03;;;;;;;15.95;14.35;;;;;;;14.59;100.00;99881.13;3583628;40;20110;-43
2021/08/06 04:15:30;;;;;;;17.15;15.43;;;;;;;14.42;100.00;99875.97;3580014;40;20337;-44
2021/08/06 04:17:57;;;;;;;16.08;14.57;;;;;;;14.63;100.00;99872.53;3573787;40;20415;-44
2021/08/06 04:20:24;;;;;;;15.43;13.93;;;;;;;14.80;100.00;99864.72;3574109;40;20049;-43
2021/08/06 04:22:51;;;;;;;15.32;13.93;;;;;;;15.18;100.00;99867.94;3574052;40;20405;-43
2021/08/06 04:25:18;;;;;;;15.68;14.25;;;;;;;15.25;100.00;99861.88;3573958;40;20053;-46
2021/08/06 04:27:45;;;;;;;14.77;13.38;;;;;;;15.20;100.00;99857.59;3573349;40;20745;-43
2021/08/06 04:30:13;;;;;;;15.15;13.75;;;;;;;15.24;100.00;99852.41;3573622;40;20429;-47
2021/08/06 04:32:40;;;;;;;17.88;16.13;;;;;;;14.78;100.00;99856.97;3573688;40;20088;-43
2021/08/06 04:35:08;;;;;;;20.48;17.27;;;;;;;14.58;100.00;99848.50;3573469;40;20081;-43
2021/08/06 04:37:35;;;;;;;20.02;17.95;;;;;;;14.40;100.00;99854.53;3573257;40;20088;-48
2021/08/06 04:40:02;;;;;;;19.52;17.42;;;;;;;14.48;100.00;99855.41;3573884;40;20090;-43
2021/08/06 04:42:29;;;;;;;20.33;18.02;;;;;;;14.63;100.00;99857.06;3573174;40;20049;-46
2021/08/06 04:44:56;;;;;;;19.38;16.73;;;;;;;14.59;100.00;99853.63;3573532;40;20056;-44
2021/08/06 04:47:23;;;;;;;18.90;16.95;;;;;;;14.90;100.00;99854.34;3573482;40;20077;-47
2021/08/06 04:49:50;;;;;;;17.50;15.82;;;;;;;15.13;100.00;99854.22;3573773;40;20045;-44
2021/08/06 04:52:17;;;;;;;18.80;16.88;;;;;;;15.00;100.00;99853.44;3573918;40;20064;-47
2021/08/06 04:54:44;;;;;;;18.02;16.13;;;;;;;14.88;100.00;99858.69;3573695;40;20053;-44
2021/08/06 04:57:11;;;;;;;18.20;16.20;;;;;;;14.89;100.00;99849.22;3573683;40;20101;-44
2021/08/06 04:59:38;;;;;;;19.92;16.92;;;;;;;14.99;100.00;99858.59;3575624;40;20085;-47
2021/08/06 05:02:05;;;;;;;18.27;16.63;;;;;;;15.01;100.00;99849.97;3575231;40;20089;-47
2021/08/06 05:04:32;;;;;;;19.20;17.02;;;;;;;15.10;100.00;99851.66;3575009;40;20133;-44
2021/08/06 05:06:59;;;;;;;17.83;15.88;;;;;;;15.17;100.00;99848.19;3575084;40;20128;-45
2021/08/06 05:09:26;;;;;;;18.60;16.63;;;;;;;15.38;100.00;99852.31;3574957;40;20083;-44
2021/08/06 05:11:53;;;;;;;18.45;16.63;;;;;;;15.26;100.00;99847.25;3574898;40;20120;-44
2021/08/06 05:14:20;;;;;;;17.23;15.52;;;;;;;15.72;100.00;99847.78;3575136;40;20085;-43
2021/08/06 05:16:47;;;;;;;16.85;15.13;;;;;;;15.62;100.00;99840.97;3574143;40;20091;-44
2021/08/06 05:19:14;;;;;;;17.55;15.77;;;;;;;15.52;100.00;99841.88;3574938;40;20081;-45
2021/08/06 05:21:41;;;;;;;18.25;15.63;;;;;;;15.82;100.00;99845.13;3575060;40;20108;-43
2021/08/06 05:24:08;;;;;;;29.38;18.48;;;;;;;15.64;100.00;99846.13;3575306;40;20104;-43
2021/08/06 05:26:35;;;;;;;21.15;17.13;;;;;;;15.55;100.00;99849.63;3574795;40;20057;-46
2021/08/06 05:29:03;;;;;;;19.20;17.30;;;;;;;15.36;100.00;99854.06;3575092;40;20442;-43
2021/08/06 05:31:30;;;;;;;18.92;17.00;;;;;;;15.43;100.00;99845.41;3575048;40;20210;-46
2021/08/06 05:33:57;;;;;;;19.95;17.90;;;;;;;15.50;100.00;99843.63;3575461;40;20314;-44
2021/08/06 05:36:24;;;;;;;29.08;18.88;;;;;;;15.68;100.00;99847.84;3575211;40;20082;-45
2021/08/06 05:38:51;;;;;;;18.90;17.00;;;;;;;15.62;100.00;99840.97;3575247;40;20053;-43
2021/08/06 05:41:18;;;;;;;19.67;17.77;;;;;;;15.68;100.00;99846.09;3574913;40;20088;-43
2021/08/06 05:43:46;;;;;;;19.55;17.55;;;;;;;15.73;100.00;99841.75;3574968;40;20076;-44
2021/08/06 05:46:13;;;;;;;20.77;18.63;;;;;;;15.72;100.00;99847.78;3574862;40;20379;-44
2021/08/06 05:48:40;;;;;;;20.73;18.65;;;;;;;15.85;100.00;99842.50;3575270;40;20353;-46
2021/08/06 05:51:07;;;;;;;21.05;19.05;;;;;;;15.86;100.00;99845.09;3574629;40;20089;-44
2021/08/06 05:53:34;;;;;;;21.15;18.20;;;;;;;16.02;100.00;99843.19;3574219;40;20101;-43
2021/08/06 05:56:01;;;;;;;21.13;19.02;;;;;;;16.06;100.00;99839.72;3574487;40;20076;-45
2021/08/06 05:58:28;;;;;;;22.70;19.55;;;;;;;16.11;100.00;99844.81;3574528;40;20052;-43
2021/08/06 06:00:55;;;;;;;20.98;18.98;;;;;;;16.22;100.00;99830.06;3574845;40;20077;-44
2021/08/06 06:03:22;;;;;;;21.48;19.27;;;;;;;16.00;100.00;99832.88;3574771;40;20051;-44
2021/08/06 06:05:49;;;;;;;22.10;19.83;;;;;;;16.15;100.00;99833.59;3574779;40;20502;-44
2021/08/06 06:08:16;;;;;;;20.73;18.77;;;;;;;16.27;100.00;99831.75;3574851;40;20108;-43
2021/08/06 06:10:43;;;;;;;21.58;19.42;;;;;;;16.19;100.00;99836.13;3574025;40;20127;-46
2021/08/06 06:13:10;;;;;;;22.15;20.00;;;;;;;16.18;100.00;99837.00;3575042;40;20093;-46
2021/08/06 06:15:38;;;;;;;20.10;18.23;;;;;;;16.54;100.00;99833.13;3574977;40;20080;-47
2021/08/06 06:18:05;;;;;;;19.70;17.60;;;;;;;16.51;100.00;99835.75;3574554;40;20093;-44
2021/08/06 06:20:32;;;;;;;21.85;17.95;;;;;;;16.43;100.00;99836.72;3574587;40;20096;-43
2021/08/06 06:22:59;;;;;;;20.27;18.35;;;;;;;16.46;100.00;99837.53;3574480;40;20089;-45
2021/08/06 06:25:26;;;;;;;19.92;17.55;;;;;;;16.58;100.00;99840.84;3574204;40;20116;-46
2021/08/06 06:28:00;;;;;;;22.70;18.45;;;;;;;16.69;100.00;99841.56;3574442;40;20073;-43
2021/08/06 06:30:29;;;;;;;17.35;15.80;;;;;;;16.73;100.00;99845.84;3574599;40;20085;-50
2021/08/06 06:32:57;;;;;;;18.98;16.92;;;;;;;16.96;100.00;99845.53;3574711;40;20100;-44
2021/08/06 06:35:25;;;;;;;18.52;16.73;;;;;;;17.47;100.00;99849.09;3574345;40;20069;-46
2021/08/06 06:37:53;;;;;;;15.95;14.48;;;;;;;17.66;100.00;99849.63;3574472;40;20057;-43
2021/08/06 06:40:21;;;;;;;16.88;15.27;;;;;;;17.65;100.00;99850.50;3574589;40;20062;-44
2021/08/06 06:42:49;;;;;;;15.50;14.10;;;;;;;17.92;100.00;99856.13;3574493;40;20092;-46
2021/08/06 06:45:17;;;;;;;16.73;15.23;;;;;;;17.42;100.00;99861.22;3574374;40;20088;-43
2021/08/06 06:47:47;;;;;;;15.43;14.13;;;;;;;17.38;100.00;99862.19;3574060;40;20037;-44
2021/08/06 06:50:18;;;;;;;18.60;15.40;;;;;;;17.36;100.00;99865.66;3574372;40;20134;-43
2021/08/06 06:52:46;;;;;;;17.92;15.63;;;;;;;17.18;100.00;99870.22;3574061;40;20100;-43
2021/08/06 06:55:14;;;;;;;16.48;14.98;;;;;;;17.51;100.00;99873.16;3574412;40;20049;-45
2021/08/06 06:57:46;;;;;;;16.77;15.05;;;;;;;17.68;100.00;99873.75;3574508;40;20088;-44
2021/08/06 07:00:14;;;;;;;16.75;15.15;;;;;;;17.45;100.00;99876.72;3573959;40;20588;-44
2021/08/06 07:02:41;;;;;;;15.52;14.02;;;;;;;17.45;100.00;99874.13;3574561;40;20112;-45
2021/08/06 07:05:09;;;;;;;15.55;14.05;;;;;;;17.69;100.00;99869.44;3574307;40;20077;-44
2021/08/06 07:07:37;;;;;;;17.05;15.45;;;;;;;17.60;100.00;99869.59;3574363;40;20108;-46
2021/08/06 07:10:07;;;;;;;16.75;15.07;;;;;;;17.75;100.00;99880.59;3574154;40;20055;-45
2021/08/06 07:12:36;;;;;;;18.58;15.15;;;;;;;17.70;100.00;99876.31;3574144;40;20101;-45
2021/08/06 07:15:06;;;;;;;17.50;15.82;;;;;;;17.64;100.00;99868.66;3573858;40;20060;-47
2021/08/06 07:17:34;;;;;;;17.00;15.52;;;;;;;17.89;100.00;99880.34;3573120;40;20092;-46
2021/08/06 07:20:02;;;;;;;17.63;15.45;;;;;;;17.82;100.00;99881.34;3573997;40;20470;-44
2021/08/06 07:22:29;;;;;;;21.25;16.23;;;;;;;17.80;100.00;99883.09;3574273;40;20342;-44
2021/08/06 07:24:56;;;;;;;20.35;17.88;;;;;;;17.70;100.00;99884.97;3574122;40;20111;-46
2021/08/06 07:27:23;;;;;;;19.90;15.50;;;;;;;18.16;100.00;99884.16;3574145;40;20669;-45
2021/08/06 07:29:50;;;;;;;22.58;16.38;;;;;;;17.84;100.00;99882.19;3574090;40;20105;-48
2021/08/06 07:32:17;;;;;;;21.35;15.35;;;;;;;18.41;100.00;99891.50;3574114;40;20077;-47
2021/08/06 07:34:50;;;;;;;18.17;15.15;;;;;;;17.87;100.00;99886.44;3574088;40;20041;-44
2021/08/06 07:37:17;;;;;;;18.63;15.48;;;;;;;18.05;100.00;99897.31;3573706;40;20061;-46
2021/08/06 07:39:44;;;;;;;16.52;13.93;;;;;;;18.44;100.00;99900.09;3573917;40;20049;-44
2021/08/06 07:42:15;;;;;;;19.33;14.10;;;;;;;18.54;100.00;99898.16;3574003;40;20051;-45
2021/08/06 07:44:42;;;;;;;14.48;13.00;;;;;;;18.71;100.00;99903.03;3573682;40;20073;-42
2021/08/06 07:47:09;;;;;;;14.30;12.48;;;;;;;18.66;100.00;99912.63;3574329;40;20057;-44
2021/08/06 07:49:39;;;;;;;12.80;11.40;;;;;;;18.69;100.00;99910.00;3573976;40;20051;-48
2021/08/06 07:52:07;;;;;;;12.15;10.93;;;;;;;18.60;100.00;99903.22;3573983;40;20061;-42
2021/08/06 07:54:37;;;;;;;12.43;11.23;;;;;;;18.96;100.00;99895.59;3574480;40;20422;-47
2021/08/06 07:57:05;;;;;;;11.27;10.23;;;;;;;19.37;100.00;99894.69;3573663;40;20059;-47
2021/08/06 07:59:32;;;;;;;9.55;7.80;;;;;;;19.26;97.09;99894.06;3574024;40;20362;-43
2021/08/06 08:01:59;;;;;;;8.65;7.75;;;;;;;19.43;97.50;99891.94;3564420;40;20055;-45
2021/08/06 08:04:26;;;;;;;8.30;7.55;;;;;;;19.80;98.93;99893.69;3573850;40;20063;-44
2021/08/06 08:06:53;;;;;;;9.43;8.43;;;;;;;19.57;97.73;99889.00;3573812;40;20057;-43
2021/08/06 08:09:20;;;;;;;7.03;6.20;;;;;;;19.85;88.46;99891.81;3574096;40;20052;-44
2021/08/06 08:11:47;;;;;;;7.03;6.32;;;;;;;19.70;91.18;99890.47;3573676;40;20052;-45
2021/08/06 08:14:15;;;;;;;6.63;6.03;;;;;;;19.87;90.69;99889.16;3573891;40;20088;-45
2021/08/06 08:16:42;;;;;;;7.15;6.32;;;;;;;19.98;97.27;99890.63;3573704;40;20373;-43
2021/08/06 08:19:09;;;;;;;9.50;5.60;;;;;;;20.09;87.08;99885.97;3573544;40;20558;-42
2021/08/06 08:21:36;;;;;;;7.13;5.72;;;;;;;20.10;89.42;99884.22;3573857;40;20464;-44
2021/08/06 08:24:04;;;;;;;9.95;5.45;;;;;;;20.52;90.23;99887.47;3573906;40;20076;-47
2021/08/06 08:26:31;;;;;;;8.13;6.07;;;;;;;20.38;88.69;99878.28;3573627;40;20080;-45
2021/08/06 08:28:58;;;;;;;7.53;5.35;;;;;;;20.71;89.17;99884.34;3564613;40;20521;-43
2021/08/06 08:31:25;;;;;;;5.05;4.63;;;;;;;20.79;88.12;99884.94;3573797;40;20365;-43
2021/08/06 08:33:52;;;;;;;5.70;5.20;;;;;;;21.11;83.46;99873.56;3574442;40;20093;-43
2021/08/06 08:36:20;;;;;;;5.00;4.55;;;;;;;21.27;82.98;99876.56;3575277;40;20052;-44
2021/08/06 08:38:47;;;;;;;5.07;4.60;;;;;;;21.96;77.84;99884.78;3575147;40;20048;-46
2021/08/06 08:41:14;;;;;;;6.80;4.38;;;;;;;22.37;74.52;99888.59;3575225;40;20108;-43
2021/08/06 08:43:43;;;;;;;9.07;4.15;;;;;;;22.69;70.72;99876.94;3574215;40;20088;-43
2021/08/06 08:46:10;;;;;;;8.32;4.53;;;;;;;22.89;71.08;99886.69;3575483;40;20454;-43
2021/08/06 08:48:38;;;;;;;4.82;4.18;;;;;;;22.75;69.40;99883.72;3574659;40;20443;-45
2021/08/06 08:51:06;;;;;;;4.45;3.58;;;;;;;22.58;69.21;99882.56;3574868;40;20057;-46
2021/08/06 08:53:33;;;;;;;4.05;3.75;;;;;;;22.94;67.20;99884.75;3574909;40;20049;-46
2021/08/06 08:56:00;;;;;;;8.20;3.80;;;;;;;22.95;69.33;99883.00;3575012;40;20101;-43
2021/08/06 08:58:27;;;;;;;3.42;3.15;;;;;;;22.60;64.11;99870.34;3574976;40;20063;-45
2021/08/06 09:00:55;;;;;;;3.80;3.10;;;;;;;23.20;59.56;99880.25;3575095;40;20415;-46
2021/08/06 09:03:49;;;;;;;3.58;3.05;;;;;;;22.77;63.02;99869.69;3574868;40;20060;-47
2021/08/06 09:06:16;;;;;;;3.38;3.05;;;;;;;23.42;59.36;99875.91;3574593;40;20073;-44
2021/08/06 09:08:44;;;;;;;2.80;2.60;;;;;;;23.77;58.14;99874.50;3574726;40;20068;-49
2021/08/06 09:11:32;;;;;;;3.40;3.10;;;;;;;23.73;55.12;99870.31;3575063;40;20144;-45
2021/08/06 09:14:29;;;;;;;2.97;2.78;;;;;;;23.89;55.57;99873.97;3575087;40;20045;-43
2021/08/06 09:17:16;;;;;;;;;;;;;;;24.45;54.85;99874.22;3575348;40;20384;-44
2021/08/06 09:19:55;;;;;;;3.40;3.10;;;;;;;24.31;54.68;99865.19;3574834;40;19936;-43
2021/08/06 09:22:24;;;;;;;3.50;3.20;;;;;;;24.72;55.43;99878.19;3575088;40;20084;-43
2021/08/06 09:25:15;;;;;;;4.65;3.22;;;;;;;24.90;54.09;99873.88;3574763;40;20176;-47
2021/08/06 09:27:59;;;;;;;3.05;2.60;;;;;;;25.44;49.86;99877.47;3565447;40;20053;-47
2021/08/06 09:30:36;;;;;;;3.10;2.78;;;;;;;25.22;48.40;99876.78;3574563;40;20092;-48
2021/08/06 09:33:05;;;;;;;2.90;2.63;;;;;;;24.63;52.42;99874.22;3574441;40;20134;-44
2021/08/06 09:35:34;;;;;;;3.00;2.70;;;;;;;24.78;59.17;99871.84;3574780;40;20076;-44
2021/08/06 09:38:02;;;;;;;3.33;3.03;;;;;;;25.58;51.04;99874.16;3574668;40;20068;-48
2021/08/06 09:40:32;;;;;;;4.07;3.35;;;;;;;25.07;52.70;99866.13;3575080;40;20074;-47
2021/08/06 09:43:02;;;;;;;2.75;2.55;;;;;;;25.34;52.08;99865.72;3575041;40;20068;-47
2021/08/06 09:45:36;;;;;;;2.70;2.50;;;;;;;25.58;45.15;99867.13;3574602;40;20106;-46
2021/08/06 09:48:04;;;;;;;3.55;3.25;;;;;;;24.55;49.69;99865.03;3574795;40;20055;-44
2021/08/06 09:50:39;;;;;;;6.32;2.90;;;;;;;25.95;48.48;99867.09;3574606;40;20085;-51
2021/08/06 09:53:06;;;;;;;5.15;3.20;;;;;;;26.43;47.02;99863.72;3574565;40;20119;-45
2021/08/06 09:55:38;;;;;;;2.85;2.58;;;;;;;26.04;46.38;99864.00;3574617;40;20084;-46
2021/08/06 09:58:09;;;;;;;3.53;3.22;;;;;;;24.93;48.58;99855.41;3574418;40;20085;-45
2021/08/06 10:00:41;;;;;;;3.67;3.13;;;;;;;25.58;48.47;99854.03;3574764;40;20081;-45
2021/08/06 10:03:24;;;;;;;3.35;3.05;;;;;;;26.19;45.46;99860.59;3574489;40;20049;-45
2021/08/06 10:06:12;;;;;;;2.72;2.55;;;;;;;26.83;44.61;99859.78;3574402;40;20041;-44
2021/08/06 10:08:41;;;;;;;3.30;3.00;;;;;;;27.06;43.78;99860.31;3574263;40;20049;-44
2021/08/06 10:11:09;;;;;;;2.75;2.53;;;;;;;27.49;42.27;99869.25;3574588;40;20059;-45
2021/08/06 10:13:37;;;;;;;3.58;3.28;;;;;;;27.29;46.26;99856.41;3574468;40;20079;-48
2021/08/06 10:16:05;;;;;;;3.17;2.97;;;;;;;27.14;44.18;99852.88;3574372;40;20112;-47
2021/08/06 10:18:33;;;;;;;3.25;3.03;;;;;;;27.82;44.79;99847.22;3574720;40;20081;-47
2021/08/06 10:21:00;;;;;;;2.97;2.60;;;;;;;30.64;37.28;99857.00;3574435;40;20085;-45
2021/08/06 10:23:27;;;;;;;2.90;2.70;;;;;;;30.96;35.70;99859.16;3574768;40;20081;-46
2021/08/06 10:25:55;;;;;;;3.10;2.80;;;;;;;31.21;34.34;99854.75;3574743;40;20519;-47
2021/08/06 10:28:22;;;;;;;2.97;2.70;;;;;;;31.81;34.00;99851.97;3574555;40;20057;-46
2021/08/06 10:30:49;;;;;;;2.78;2.55;;;;;;;35.06;28.00;99868.47;3574789;40;20065;-47
2021/08/06 10:33:26;;;;;;;3.00;2.70;;;;;;;34.50;28.03;99861.03;3574580;40;20095;-49
2021/08/06 10:35:55;;;;;;;2.80;2.60;;;;;;;30.53;36.01;99848.16;3574314;40;20097;-48
2021/08/06 10:38:43;;;;;;;3.53;2.67;;;;;;;29.97;38.50;99847.63;3574265;40;20072;-46
2021/08/06 10:41:17;;;;;;;2.97;2.72;;;;;;;29.50;37.96;99839.31;3574634;40;20089;-47
2021/08/06 10:43:57;;;;;;;5.30;2.95;;;;;;;30.15;36.10;99838.47;3574230;40;20053;-46
2021/08/06 10:46:24;;;;;;;4.57;2.97;;;;;;;30.45;34.99;99838.13;3574361;40;20043;-46
2021/08/06 10:48:53;;;;;;;3.03;2.60;;;;;;;29.15;36.76;99825.78;3574338;40;20056;-48
2021/08/06 10:51:21;;;;;;;3.17;2.80;;;;;;;30.56;33.72;99835.56;3574569;40;20322;-47
2021/08/06 10:53:49;;;;;;;2.70;2.50;;;;;;;30.82;34.10;99838.16;3574703;40;20323;-45
2021/08/06 10:56:16;;;;;;;2.60;2.40;;;;;;;31.11;32.92;99833.41;3573871;40;20122;-46
2021/08/06 10:58:52;;;;;;;3.17;2.88;;;;;;;29.99;33.64;99832.53;3574479;40;20077;-45
2021/08/06 11:01:34;;;;;;;;;;;;;;;29.25;34.03;99839.22;3575143;40;20060;-45
2021/08/06 11:04:03;;;;;;;2.80;2.58;;;;;;;30.34;34.05;99836.22;3574254;40;19951;-47
2021/08/06 11:06:52;;;;;;;2.75;2.53;;;;;;;32.79;33.82;99843.50;3574260;40;20045;-45
2021/08/06 11:09:25;;;;;;;2.90;2.65;;;;;;;32.86;30.45;99837.56;3574177;40;20064;-46
2021/08/06 11:12:07;;;;;;;3.72;2.60;;;;;;;31.78;33.71;99830.19;3573975;40;20057;-48
2021/08/06 11:14:34;;;;;;;4.82;2.97;;;;;;;29.07;35.22;99821.03;3574222;40;20052;-48
2021/08/06 11:17:08;;;;;;;2.97;2.78;;;;;;;29.03;36.55;99811.63;3574124;40;21712;-46
2021/08/06 11:19:41;;;;;;;2.67;2.47;;;;;;;28.58;36.18;99808.34;3574598;40;20072;-45
2021/08/06 11:22:10;;;;;;;3.90;2.80;;;;;;;29.77;35.48;99807.63;3635902;23;20065;-50
2021/08/06 11:24:47;;;;;;;2.72;2.30;;;;;;;31.78;32.30;99815.13;3585755;40;20056;-49
2021/08/06 11:27:15;;;;;;;2.30;2.20;;;;;;;32.95;30.44;99805.00;3585705;40;20076;-48